CYBK

Baker Lake Airport

Baker Lake, Canada
METAR CYBK 200500Z 00000KT 20SM -RA SCT055 OVC068 07/03 A2986 RMK SC3AC5 SLP116
Observed Flight Rules
Jun-20 @ 05:00 UTC (51 minutes ago) Visual Flight Rules
Visibility Clouds Conditions
20 miles
  • Scattered at 5,500' AGL
  • Overcast at 6,800' AGL
  • Light Rain
Temperatures Readings
Current 7°C / 45°F
Dewpoint 3°C / 37°F
Humidity 76%
Altimeter 29.86" Hg
Pressure 1011.6 hPa
Elevation 18
METAR CYBK 200500Z 00000KT 20SM -RA SCT055 OVC068 07/03 A2986 RMK SC3AC5 SLP116
Observed Flight Rules
Jun-20 @ 05:00 UTC
(51 minutes ago)
VFR
Clouds
  • Scattered at 5,500' AGL
  • Overcast at 6,800' AGL
Conditions
  • Light Rain
Temperature Dewpoint
7°C / 45°F 3°C / 37°F
Humidity Altimeter Pressure
76% 29.86" Hg 1011.6 hPa